Time;durP1;ratioP1;P1;durP2;ratioP2;P2;SDS_P1;SDS_P2;PMS_P1;PMS_P2;Temp;Humidity;BMP_temperature;BMP_pressure;BME280_temperature;BME280_humidity;BME280_pressure;Samples;Min_cycle;Max_cycle;Signal;HPM_P1;HPM_P2
2021/10/06 00:02:13;;;;;;;3.37;2.47;;;;;;;4.90;57.85;103072.09;1781357;80;21248;-63
2021/10/06 00:04:47;;;;;;;3.15;2.30;;;;;;;4.86;57.90;103068.72;1779815;80;21199;-63
2021/10/06 00:07:20;;;;;;;3.77;2.42;;;;;;;4.82;58.02;103069.69;1779906;80;21141;-65
2021/10/06 00:09:52;;;;;;;4.42;2.70;;;;;;;4.78;58.05;103077.96;1779808;80;21232;-66
2021/10/06 00:12:26;;;;;;;8.00;2.52;;;;;;;4.73;58.18;103072.00;1781322;80;21117;-65
2021/10/06 00:14:59;;;;;;;3.98;2.72;;;;;;;4.73;58.35;103084.12;1779774;80;21185;-64
2021/10/06 00:17:32;;;;;;;3.12;2.35;;;;;;;4.69;58.42;103079.88;1780103;80;21283;-64
2021/10/06 00:20:07;;;;;;;3.00;2.50;;;;;;;4.64;58.43;103086.90;1779837;80;21204;-64
2021/10/06 00:22:40;;;;;;;3.58;2.22;;;;;;;4.58;58.61;103082.70;1781090;80;21256;-64
2021/10/06 00:25:13;;;;;;;6.03;2.70;;;;;;;4.52;58.83;103079.34;1779879;80;21165;-64
2021/10/06 00:27:48;;;;;;;5.15;2.60;;;;;;;4.46;59.00;103079.04;1780159;80;21264;-65
2021/10/06 00:30:21;;;;;;;3.92;2.37;;;;;;;4.39;59.19;103080.04;1780838;80;21149;-62
2021/10/06 00:32:54;;;;;;;3.70;2.60;;;;;;;4.35;59.37;103086.14;1781264;80;21261;-63
2021/10/06 00:35:27;;;;;;;3.45;2.47;;;;;;;4.31;59.50;103084.94;1779980;80;21668;-65
2021/10/06 00:38:00;;;;;;;4.87;2.53;;;;;;;4.26;59.71;103085.45;1781292;80;21117;-63
2021/10/06 00:40:33;;;;;;;4.25;1.95;;;;;;;4.20;59.80;103083.84;1779944;80;21300;-63
2021/10/06 00:43:06;;;;;;;3.43;2.50;;;;;;;4.14;59.98;103080.05;1781719;80;21812;-63
2021/10/06 00:45:40;;;;;;;5.10;2.17;;;;;;;4.11;60.16;103090.46;1781147;80;21180;-64
2021/10/06 00:48:13;;;;;;;4.47;2.58;;;;;;;4.06;60.24;103086.66;1781172;80;21142;-65
2021/10/06 00:50:46;;;;;;;7.20;2.70;;;;;;;4.04;60.29;103092.74;1781335;80;21150;-65
2021/10/06 00:53:19;;;;;;;4.47;2.67;;;;;;;3.98;60.40;103087.24;1781783;80;21795;-64
2021/10/06 00:55:52;;;;;;;3.20;1.80;;;;;;;3.94;60.56;103089.45;1754960;80;21355;-65
2021/10/06 00:58:25;;;;;;;3.10;2.37;;;;;;;3.90;60.62;103089.53;1781148;80;21406;-64
2021/10/06 01:00:57;;;;;;;5.17;2.27;;;;;;;3.86;60.80;103095.22;1781298;80;21249;-63
2021/10/06 01:03:31;;;;;;;4.17;2.60;;;;;;;3.84;60.80;103103.89;1781456;80;21106;-65
2021/10/06 01:06:04;;;;;;;6.30;3.00;;;;;;;3.79;60.92;103094.90;1781397;80;21264;-64
2021/10/06 01:08:37;;;;;;;4.40;2.57;;;;;;;3.77;61.01;103097.96;1781297;80;21249;-63
2021/10/06 01:11:11;;;;;;;3.98;2.70;;;;;;;3.74;61.07;103095.84;1781277;80;21208;-61
2021/10/06 01:13:44;;;;;;;4.40;2.60;;;;;;;3.67;61.18;103089.91;1781455;80;21767;-64
2021/10/06 01:16:17;;;;;;;4.37;2.62;;;;;;;3.65;61.28;103094.26;1781428;80;21133;-62
2021/10/06 01:18:50;;;;;;;5.62;2.87;;;;;;;3.61;61.29;103095.16;1781306;80;21283;-62
2021/10/06 01:21:23;;;;;;;3.73;2.67;;;;;;;3.58;61.34;103094.37;1781394;80;21126;-63
2021/10/06 01:23:56;;;;;;;6.53;2.53;;;;;;;3.54;61.46;103094.84;1781268;80;21256;-64
2021/10/06 01:26:30;;;;;;;6.70;2.47;;;;;;;3.51;61.56;103094.05;1781507;80;21244;-64
2021/10/06 01:29:03;;;;;;;3.87;2.37;;;;;;;3.47;61.67;103094.94;1781661;80;21249;-63
2021/10/06 01:31:36;;;;;;;2.87;2.30;;;;;;;3.40;61.72;103093.75;1781074;80;21176;-65
2021/10/06 01:34:09;;;;;;;6.50;2.10;;;;;;;3.39;61.82;103099.80;1781446;80;21240;-63
2021/10/06 01:36:42;;;;;;;4.50;2.52;;;;;;;3.36;61.92;103096.41;1781384;80;21256;-63
2021/10/06 01:39:15;;;;;;;3.50;1.83;;;;;;;3.35;61.90;103106.33;1781698;80;21106;-65
2021/10/06 01:41:48;;;;;;;5.70;2.20;;;;;;;3.33;61.96;103105.07;1776256;80;21356;-65
2021/10/06 01:44:21;;;;;;;2.67;1.90;;;;;;;3.27;61.94;103110.31;1753488;82;21615;-64
2021/10/06 01:46:54;;;;;;;4.03;2.42;;;;;;;3.24;62.07;103116.85;1752333;82;21197;-64
2021/10/06 01:49:29;;;;;;;3.35;2.22;;;;;;;3.21;62.15;103122.06;1753814;82;21253;-63
2021/10/06 01:52:01;;;;;;;3.90;2.30;;;;;;;3.16;62.23;103114.78;1753946;82;21795;-64
2021/10/06 01:54:36;;;;;;;5.00;2.45;;;;;;;3.15;62.31;103118.70;1753514;82;21265;-64
2021/10/06 01:57:09;;;;;;;5.63;2.40;;;;;;;3.11;62.37;103123.48;1753971;82;21269;-64
2021/10/06 01:59:43;;;;;;;4.60;2.35;;;;;;;3.09;62.35;103123.51;1753768;82;21134;-62
2021/10/06 02:02:16;;;;;;;;;;;;;;;3.04;62.42;103129.17;1755994;82;21126;-65
2021/10/06 02:04:49;;;;;;;5.92;2.92;;;;;;;2.99;62.51;103131.39;1753217;82;20179;-64
2021/10/06 02:07:22;;;;;;;8.45;2.87;;;;;;;2.93;62.61;103128.89;1753717;82;21288;-65
2021/10/06 02:09:55;;;;;;;6.67;2.80;;;;;;;2.89;62.74;103135.81;1753708;82;21224;-63
2021/10/06 02:12:28;;;;;;;7.97;2.98;;;;;;;2.85;62.82;103136.73;1753701;82;21149;-65
2021/10/06 02:15:01;;;;;;;5.65;2.52;;;;;;;2.82;62.90;103135.46;1753717;82;21201;-65
2021/10/06 02:17:34;;;;;;;5.20;2.62;;;;;;;2.80;62.90;103133.77;1753505;82;21185;-63
2021/10/06 02:20:08;;;;;;;5.15;2.58;;;;;;;2.77;62.95;103135.95;1753871;82;21732;-66
2021/10/06 02:22:41;;;;;;;3.47;2.12;;;;;;;2.75;62.99;103138.16;1749259;80;21292;-64
2021/10/06 02:25:14;;;;;;;3.02;1.62;;;;;;;2.70;63.04;103139.05;1721012;83;21277;-64
2021/10/06 02:27:47;;;;;;;2.90;2.00;;;;;;;2.68;63.13;103136.05;1724254;82;21204;-65
2021/10/06 02:30:20;;;;;;;3.57;2.50;;;;;;;2.67;63.18;103139.53;1722582;83;21763;-65
2021/10/06 02:32:54;;;;;;;3.40;2.22;;;;;;;2.64;63.22;103136.53;1728080;81;21273;-65
2021/10/06 02:35:27;;;;;;;4.35;2.37;;;;;;;2.65;63.29;103145.99;1722234;83;21165;-64
2021/10/06 02:38:00;;;;;;;5.13;2.10;;;;;;;2.62;63.31;103146.47;1722656;83;21384;-64
2021/10/06 02:40:33;;;;;;;;;;;;;;;2.59;63.35;103155.55;1724330;83;21468;-64
2021/10/06 02:43:06;;;;;;;3.72;2.45;;;;;;;2.56;63.39;103156.44;1692910;83;20194;-65
2021/10/06 02:45:39;;;;;;;3.85;2.20;;;;;;;2.52;63.49;103156.05;1745702;82;21260;-66
2021/10/06 02:48:12;;;;;;;3.05;1.98;;;;;;;2.52;63.55;103155.19;1731764;83;21225;-66
2021/10/06 02:50:45;;;;;;;9.27;2.40;;;;;;;2.51;63.55;103162.08;1750549;82;21145;-68
2021/10/06 02:53:18;;;;;;;2.57;1.50;;;;;;;2.50;63.54;103159.52;1731605;83;21510;-65
2021/10/06 02:55:51;;;;;;;3.72;2.30;;;;;;;2.49;63.59;103164.26;1750697;82;21291;-66
2021/10/06 02:58:24;;;;;;;5.00;2.23;;;;;;;2.46;63.63;103170.78;1731675;83;21293;-64
2021/10/06 03:00:57;;;;;;;4.62;2.62;;;;;;;2.41;63.67;103177.71;1750301;82;21260;-64
2021/10/06 03:03:30;;;;;;;2.90;1.85;;;;;;;2.41;63.73;103181.12;1730887;83;21213;-65
2021/10/06 03:06:04;;;;;;;7.00;2.90;;;;;;;2.39;63.76;103177.70;1750517;82;21339;-63
2021/10/06 03:08:37;;;;;;;7.33;2.50;;;;;;;2.37;63.78;103181.17;1731609;83;21317;-64
2021/10/06 03:11:10;;;;;;;;;;;;;;;2.36;63.79;103184.22;1752658;82;21137;-64
2021/10/06 03:13:43;;;;;;;5.83;2.15;;;;;;;2.36;63.82;103178.18;1718945;83;20227;-64
2021/10/06 03:16:16;;;;;;;5.63;1.67;;;;;;;2.34;63.88;103181.22;1750804;82;21256;-66
2021/10/06 03:18:49;;;;;;;9.40;5.15;;;;;;;2.32;63.89;103178.63;1731660;83;21296;-65
2021/10/06 03:21:22;;;;;;;47.38;20.08;;;;;;;2.28;63.95;103177.38;1750490;82;21272;-65
2021/10/06 03:23:55;;;;;;;37.70;15.98;;;;;;;2.24;64.04;103182.16;1737238;81;21252;-64
2021/10/06 03:26:28;;;;;;;17.33;8.40;;;;;;;2.18;64.15;103179.61;1750263;82;21264;-64
2021/10/06 03:29:01;;;;;;;9.75;4.87;;;;;;;2.16;64.28;103178.77;1728542;82;21302;-64
2021/10/06 03:31:35;;;;;;;6.45;3.33;;;;;;;2.13;64.34;103185.23;1729686;83;21295;-66
2021/10/06 03:34:09;;;;;;;14.07;3.35;;;;;;;2.08;64.37;103187.86;1730293;81;21328;-65
2021/10/06 03:36:42;;;;;;;7.13;2.90;;;;;;;2.07;64.43;103191.33;1743532;82;21135;-64
2021/10/06 03:39:15;;;;;;;;;;;;;;;2.05;64.48;103187.45;1746552;82;21161;-65
2021/10/06 03:41:47;;;;;;;8.58;3.83;;;;;;;2.04;64.55;103188.77;1745197;82;20188;-65
2021/10/06 03:44:20;;;;;;;7.63;3.20;;;;;;;2.03;64.58;103199.52;1743420;82;21325;-65
2021/10/06 03:46:53;;;;;;;4.85;2.60;;;;;;;2.04;64.57;103192.20;1717780;82;21294;-65
2021/10/06 03:49:26;;;;;;;6.40;2.90;;;;;;;2.05;64.56;103199.08;1715636;82;21302;-65
2021/10/06 03:52:00;;;;;;;6.12;2.90;;;;;;;2.09;64.53;103199.92;1716063;83;21297;-64
2021/10/06 03:54:33;;;;;;;5.83;2.70;;;;;;;2.13;64.39;103200.75;1715711;82;21187;-65
2021/10/06 03:57:06;;;;;;;7.27;2.87;;;;;;;2.18;64.31;103205.02;1716059;83;21345;-65
2021/10/06 03:59:39;;;;;;;6.75;2.72;;;;;;;2.27;64.12;103206.70;1726404;82;21287;-63
2021/10/06 04:02:12;;;;;;;6.45;2.58;;;;;;;2.37;63.80;103212.20;1744927;82;21256;-65
2021/10/06 04:04:45;;;;;;;13.05;3.30;;;;;;;2.47;63.53;103209.96;1732896;82;21270;-64
2021/10/06 04:07:18;;;;;;;8.18;2.50;;;;;;;2.58;63.23;103203.82;1715672;83;21274;-65
2021/10/06 04:09:51;;;;;;;6.23;2.50;;;;;;;2.76;62.78;103198.92;1715374;82;21305;-63
2021/10/06 04:12:24;;;;;;;6.43;2.83;;;;;;;3.49;61.56;103198.11;1699755;83;21376;-68
2021/10/06 04:14:57;;;;;;;12.05;3.80;;;;;;;3.49;61.56;103198.11;1715790;82;21275;-63
2021/10/06 04:17:30;;;;;;;14.83;4.00;;;;;;;4.48;59.86;103208.27;1715603;82;21191;-66
2021/10/06 04:20:04;;;;;;;6.70;2.57;;;;;;;5.51;57.33;103208.05;1715727;82;21710;-67
2021/10/06 04:22:39;;;;;;;7.15;3.30;;;;;;;6.44;54.50;103200.70;1715256;83;21282;-68
2021/10/06 04:25:12;;;;;;;13.57;2.90;;;;;;;7.30;51.89;103196.20;1715847;82;21262;-68
2021/10/06 04:27:45;;;;;;;5.77;2.60;;;;;;;8.05;49.28;103199.55;1715642;83;21580;-67
2021/10/06 04:30:18;;;;;;;18.43;4.00;;;;;;;8.65;47.41;103198.88;1715699;82;22009;-66
2021/10/06 04:32:52;;;;;;;29.72;6.00;;;;;;;9.21;45.65;103194.72;1715046;83;21982;-66
2021/10/06 04:35:26;;;;;;;9.40;4.17;;;;;;;9.72;44.20;103203.20;1715139;82;21896;-68
2021/10/06 04:38:00;;;;;;;4.78;2.25;;;;;;;10.28;42.85;103206.23;1715510;83;21908;-68
2021/10/06 04:40:34;;;;;;;14.60;2.77;;;;;;;10.83;41.46;103207.39;1715024;82;21357;-66
2021/10/06 04:43:11;;;;;;;4.53;1.70;;;;;;;11.80;38.96;103215.64;1716020;83;21282;-70
2021/10/06 04:45:45;;;;;;;3.08;1.70;;;;;;;11.80;38.96;103215.64;1739313;82;21965;-68
2021/10/06 04:48:18;;;;;;;8.93;2.05;;;;;;;12.32;38.00;103214.47;1739086;81;21205;-69
2021/10/06 04:50:51;;;;;;;1.22;0.85;;;;;;;12.87;37.33;103213.84;1744997;82;21296;-70
2021/10/06 04:53:24;;;;;;;4.10;1.57;;;;;;;13.52;36.65;103216.97;1714099;83;21360;-69
2021/10/06 04:55:57;;;;;;;4.67;1.80;;;;;;;14.13;34.65;103223.16;1720347;82;21359;-70
2021/10/06 04:58:32;;;;;;;3.50;1.20;;;;;;;14.47;33.99;103224.73;1722764;82;21330;-67
2021/10/06 05:01:04;;;;;;;6.77;2.03;;;;;;;14.74;33.08;103220.45;1724919;82;21299;-63
2021/10/06 05:03:39;;;;;;;5.00;2.95;;;;;;;15.01;32.50;103228.05;1694495;82;21938;-66
2021/10/06 05:06:12;;;;;;;3.93;1.43;;;;;;;15.29;31.89;103223.23;1721596;82;21277;-66
2021/10/06 05:08:45;;;;;;;9.93;2.22;;;;;;;15.48;30.75;103227.78;1704211;81;21315;-63
2021/10/06 05:11:18;;;;;;;2.20;1.43;;;;;;;15.64;31.04;103224.58;1729683;82;21256;-65
2021/10/06 05:13:58;;;;;;;3.37;1.10;;;;;;;16.02;29.96;103228.73;1702005;81;21299;-65
2021/10/06 05:16:29;;;;;;;6.00;1.45;;;;;;;16.28;29.36;103233.16;1729694;82;21236;-66
2021/10/06 05:19:02;;;;;;;5.33;1.52;;;;;;;16.58;29.29;103222.36;1740261;80;21734;-65
2021/10/06 05:21:39;;;;;;;4.28;1.05;;;;;;;16.89;28.35;103223.77;1699209;81;21189;-64
2021/10/06 05:24:11;;;;;;;3.05;1.40;;;;;;;16.82;28.21;103230.81;1727309;82;21319;-62
2021/10/06 05:26:44;;;;;;;7.97;1.50;;;;;;;17.02;28.18;103229.45;1708686;81;21196;-63
2021/10/06 05:29:17;;;;;;;5.83;1.60;;;;;;;17.29;27.43;103226.19;1726733;81;21346;-64
2021/10/06 05:31:50;;;;;;;1.80;0.95;;;;;;;17.60;27.47;103231.51;1713470;81;22535;-62
2021/10/06 05:34:23;;;;;;;;;;;;;;;18.02;26.38;103229.75;1751695;80;21742;-63
2021/10/06 05:36:58;;;;;;;8.13;1.75;;;;;;;18.35;25.72;103223.74;1744957;80;21337;-66
2021/10/06 05:39:33;;;;;;;2.58;0.80;;;;;;;18.32;25.61;103227.94;1713799;82;21810;-61
2021/10/06 05:42:07;;;;;;;8.18;1.37;;;;;;;18.51;25.32;103229.61;1713633;82;21311;-65
2021/10/06 05:44:41;;;;;;;2.77;1.30;;;;;;;18.72;25.07;103229.30;1717215;82;21302;-63
2021/10/06 05:47:14;;;;;;;8.75;1.30;;;;;;;19.02;24.65;103235.41;1720813;82;21327;-64
2021/10/06 05:49:47;;;;;;;16.62;1.85;;;;;;;18.99;24.22;103237.44;1736226;81;21848;-63
2021/10/06 05:52:21;;;;;;;3.25;1.10;;;;;;;19.01;24.70;103235.03;1737866;81;21260;-68
2021/10/06 05:54:53;;;;;;;;;;;;;;;19.37;24.53;103229.53;1741953;81;21327;-65
2021/10/06 05:57:28;;;;;;;10.93;1.50;;;;;;;19.88;23.44;103228.98;1735704;81;20655;-64
2021/10/06 06:00:09;;;;;;;4.50;1.40;;;;;;;20.46;22.97;103223.72;1735291;80;21311;-64
2021/10/06 06:02:48;;;;;;;2.25;1.20;;;;;;;20.46;22.97;103223.72;1708439;81;21320;-64
2021/10/06 06:05:26;;;;;;;3.58;1.30;;;;;;;20.87;22.22;103222.87;1729862;82;21307;-63
2021/10/06 06:08:01;;;;;;;2.22;1.00;;;;;;;21.08;21.69;103223.72;1705936;81;21256;-66
2021/10/06 06:10:35;;;;;;;4.40;2.15;;;;;;;21.36;21.14;103228.32;1704114;81;21571;-66
2021/10/06 06:13:09;;;;;;;5.80;1.05;;;;;;;21.47;20.97;103217.55;1710273;81;21181;-65
2021/10/06 06:15:46;;;;;;;1.72;0.88;;;;;;;21.37;21.07;103220.17;1736521;80;21295;-64
2021/10/06 06:18:20;;;;;;;3.65;0.90;;;;;;;21.43;20.54;103224.14;1699517;81;21154;-67
2021/10/06 06:20:58;;;;;;;4.50;0.80;;;;;;;21.48;20.52;103223.25;1730077;82;21292;-66
2021/10/06 06:23:32;;;;;;;5.33;1.10;;;;;;;21.41;20.43;103224.28;1721723;82;21291;-67
2021/10/06 06:26:08;;;;;;;3.17;0.80;;;;;;;21.28;20.44;103222.33;1720778;81;22210;-67
2021/10/06 06:28:42;;;;;;;5.40;0.72;;;;;;;21.41;20.33;103219.44;1710030;81;21777;-61
2021/10/06 06:31:17;;;;;;;6.40;1.30;;;;;;;21.74;20.04;103236.44;1732272;82;22127;-64
2021/10/06 06:33:50;;;;;;;9.20;1.32;;;;;;;21.84;19.82;103221.34;1731089;82;21338;-66
2021/10/06 06:36:24;;;;;;;3.47;0.90;;;;;;;21.94;19.82;103218.20;1732064;82;21709;-66
2021/10/06 06:39:01;;;;;;;3.12;0.90;;;;;;;22.20;19.57;103214.97;1726449;82;21165;-63
2021/10/06 06:41:35;;;;;;;2.75;1.12;;;;;;;22.50;19.39;103218.31;1711406;83;21343;-65
2021/10/06 06:44:12;;;;;;;2.22;0.70;;;;;;;22.71;19.40;103208.84;1730808;80;21821;-63
2021/10/06 06:46:49;;;;;;;5.45;0.80;;;;;;;23.07;18.68;103217.36;1731316;82;21890;-60
2021/10/06 06:49:22;;;;;;;6.47;1.30;;;;;;;23.06;18.51;103209.50;1713332;81;21405;-62
2021/10/06 06:51:56;;;;;;;2.62;0.78;;;;;;;22.94;18.24;103212.85;1726771;82;21336;-66
2021/10/06 06:54:29;;;;;;;4.97;0.93;;;;;;;23.17;18.08;103210.16;1731021;82;21335;-64
2021/10/06 06:57:05;;;;;;;7.37;1.00;;;;;;;23.27;17.95;103210.11;1731791;82;21335;-67
2021/10/06 06:59:39;;;;;;;8.73;1.45;;;;;;;23.24;18.04;103210.40;1715805;81;21165;-65
2021/10/06 07:02:22;;;;;;;4.40;1.10;;;;;;;23.22;17.66;103211.05;1728586;81;21185;-65
2021/10/06 07:04:56;;;;;;;3.93;1.30;;;;;;;22.91;17.74;103217.63;1727935;82;21294;-62
2021/10/06 07:07:32;;;;;;;7.42;1.45;;;;;;;22.83;18.04;103221.05;1712439;82;21180;-61
2021/10/06 07:10:07;;;;;;;5.17;1.40;;;;;;;23.00;17.68;103209.58;1730150;81;22190;-65
2021/10/06 07:12:41;;;;;;;4.75;0.75;;;;;;;22.82;17.43;103218.02;1727176;81;21302;-66
2021/10/06 07:15:14;;;;;;;4.83;1.25;;;;;;;22.65;17.56;103222.76;1721833;81;22511;-64
2021/10/06 07:17:49;;;;;;;4.22;0.90;;;;;;;22.44;17.63;103220.72;1732663;80;21263;-66
2021/10/06 07:20:25;;;;;;;4.72;0.80;;;;;;;22.45;18.28;103224.57;1730484;80;21339;-64
2021/10/06 07:22:58;;;;;;;21.30;2.37;;;;;;;22.91;17.89;103212.28;1731186;80;21305;-62
2021/10/06 07:25:32;;;;;;;4.20;1.07;;;;;;;23.06;17.30;103211.69;1732874;80;21300;-66
2021/10/06 07:28:06;;;;;;;5.60;0.80;;;;;;;22.84;17.73;103213.85;1730320;80;21295;-65
2021/10/06 07:30:39;;;;;;;7.47;1.10;;;;;;;22.85;17.32;103204.38;1705062;81;21295;-66
2021/10/06 07:33:13;;;;;;;3.52;1.12;;;;;;;22.78;17.46;103205.42;1736601;80;21255;-67
2021/10/06 07:35:45;;;;;;;;;;;;;;;22.66;17.15;103203.91;1731536;82;21243;-64
2021/10/06 07:38:18;;;;;;;4.65;0.93;;;;;;;22.54;16.56;103217.55;1731300;82;20215;-66
2021/10/06 07:40:54;;;;;;;19.40;1.98;;;;;;;22.10;16.94;103206.48;1739801;80;21849;-66
2021/10/06 07:43:27;;;;;;;;;;;;;;;21.96;17.03;103228.72;1739920;80;21328;-65
2021/10/06 07:46:13;;;;;;;9.05;1.42;;;;;;;21.78;17.07;103235.69;1729107;82;20279;-64
2021/10/06 07:48:43;;;;;;;16.48;1.90;;;;;;;21.51;16.99;103210.14;1705998;81;21362;-66
2021/10/06 07:51:18;;;;;;;21.65;2.10;;;;;;;21.04;17.44;103195.63;1714105;81;21913;-65
2021/10/06 07:53:52;;;;;;;3.47;0.82;;;;;;;20.92;17.90;103201.51;1735484;81;21834;-64
2021/10/06 07:56:29;;;;;;;18.05;1.50;;;;;;;21.06;17.63;103200.37;1733767;81;21201;-66
2021/10/06 07:59:03;;;;;;;3.83;1.60;;;;;;;21.14;17.60;103195.20;1730458;81;21380;-61
2021/10/06 08:01:39;;;;;;;5.95;1.82;;;;;;;21.07;17.90;103205.55;1732680;81;21327;-65
2021/10/06 08:04:14;;;;;;;4.37;0.80;;;;;;;20.90;17.89;103203.98;1670329;84;21435;-64
2021/10/06 08:06:48;;;;;;;6.58;1.10;;;;;;;20.58;18.11;103194.73;1732984;81;21331;-71
2021/10/06 08:09:22;;;;;;;17.40;2.22;;;;;;;20.38;18.52;103208.87;1732797;81;21294;-64
2021/10/06 08:11:57;;;;;;;6.47;0.85;;;;;;;20.08;19.14;103209.08;1734753;81;21168;-67
2021/10/06 08:14:30;;;;;;;4.62;1.07;;;;;;;20.13;19.28;103205.55;1730487;81;21321;-68
2021/10/06 08:17:07;;;;;;;3.22;0.85;;;;;;;20.40;18.93;103197.13;1729609;81;21800;-66
2021/10/06 08:19:41;;;;;;;8.60;1.30;;;;;;;20.74;18.41;103197.30;1731132;81;21276;-69
2021/10/06 08:22:14;;;;;;;23.02;2.12;;;;;;;20.96;18.23;103196.77;1730542;81;21185;-69
2021/10/06 08:24:49;;;;;;;4.45;1.00;;;;;;;20.94;17.97;103194.73;1732557;81;21288;-68
2021/10/06 08:27:22;;;;;;;11.57;1.22;;;;;;;20.79;18.08;103195.09;1732428;81;21181;-66
2021/10/06 08:29:55;;;;;;;3.47;0.90;;;;;;;20.66;17.83;103206.41;1734947;81;21320;-62
2021/10/06 08:32:31;;;;;;;5.05;1.37;;;;;;;20.49;17.97;103196.34;1733048;81;21338;-64
2021/10/06 08:35:06;;;;;;;3.62;1.50;;;;;;;20.39;17.83;103199.92;1729121;81;21740;-69
2021/10/06 08:37:40;;;;;;;13.78;1.60;;;;;;;20.13;18.09;103197.58;1733291;81;21386;-67
2021/10/06 08:40:12;;;;;;;;;;;;;;;19.97;18.76;103193.17;1736062;81;21306;-66
2021/10/06 08:42:47;;;;;;;7.97;1.30;;;;;;;20.04;18.85;103190.36;1732643;81;20772;-67
2021/10/06 08:45:21;;;;;;;11.75;1.02;;;;;;;20.14;18.50;103208.59;1735528;81;21319;-68
2021/10/06 08:47:54;;;;;;;1.77;0.80;;;;;;;19.99;18.35;103186.42;1728636;81;21222;-69
2021/10/06 08:50:27;;;;;;;4.67;0.90;;;;;;;19.77;18.40;103184.67;1730805;81;21881;-69
2021/10/06 08:53:03;;;;;;;6.37;1.00;;;;;;;19.62;18.57;103187.72;1732281;81;21348;-66
2021/10/06 08:55:40;;;;;;;27.55;3.05;;;;;;;19.64;18.78;103191.09;1718884;81;21217;-70
2021/10/06 08:58:14;;;;;;;6.28;0.90;;;;;;;19.58;18.87;103175.66;1731583;82;21536;-63
2021/10/06 09:00:57;;;;;;;61.83;4.78;;;;;;;19.55;18.48;103183.39;1713133;81;21208;-63
2021/10/06 09:03:36;;;;;;;6.80;0.88;;;;;;;19.45;18.76;103167.34;1733411;82;21298;-67
2021/10/06 09:06:11;;;;;;;6.00;0.93;;;;;;;19.26;18.74;103178.19;1730443;82;21299;-66
2021/10/06 09:08:47;;;;;;;14.73;2.50;;;;;;;19.11;18.98;103174.94;1719708;82;21279;-69
2021/10/06 09:11:24;;;;;;;10.40;3.15;;;;;;;18.87;19.27;103167.56;1732265;82;21169;-68
2021/10/06 09:13:56;;;;;;;6.33;1.85;;;;;;;18.73;19.63;103173.95;1730472;82;21183;-68
2021/10/06 09:16:29;;;;;;;5.22;1.98;;;;;;;18.66;19.83;103173.20;1680349;83;22117;-66
2021/10/06 09:19:02;;;;;;;29.27;1.87;;;;;;;18.67;19.64;103169.61;1702248;83;21184;-68
2021/10/06 09:21:58;;;;;;;6.55;1.20;;;;;;;18.59;19.49;103179.95;1731747;82;21284;-66
2021/10/06 09:25:02;;;;;;;5.12;1.00;;;;;;;18.29;19.78;103171.65;1711811;83;22308;-68
2021/10/06 09:27:41;;;;;;;4.17;1.10;;;;;;;17.84;20.09;103178.58;1657535;83;21462;-69
2021/10/06 09:30:15;;;;;;;5.92;1.60;;;;;;;17.35;20.96;103174.12;1730045;80;21292;-64
2021/10/06 09:32:50;;;;;;;8.20;1.65;;;;;;;17.17;20.94;103171.95;1726319;82;21338;-62
2021/10/06 09:35:26;;;;;;;4.75;0.70;;;;;;;16.64;21.06;103161.97;1731813;82;21311;-66
2021/10/06 09:38:06;;;;;;;5.60;1.10;;;;;;;16.16;21.60;103176.66;1729699;82;21696;-65
2021/10/06 09:40:37;;;;;;;6.87;1.50;;;;;;;15.80;21.92;103164.54;1709332;81;21322;-65
2021/10/06 09:43:10;;;;;;;7.87;1.10;;;;;;;15.33;22.75;103161.41;1732259;82;21308;-67
2021/10/06 09:45:43;;;;;;;9.85;1.20;;;;;;;14.93;23.37;103152.93;1735517;82;21576;-64
2021/10/06 09:48:21;;;;;;;1.92;0.80;;;;;;;14.75;23.92;103150.97;1701970;83;21277;-67
2021/10/06 09:50:54;;;;;;;3.42;1.10;;;;;;;14.65;23.87;103162.53;1729263;82;21197;-64
2021/10/06 09:53:27;;;;;;;3.02;1.00;;;;;;;14.40;24.24;103145.15;1732610;82;21350;-64
2021/10/06 09:56:04;;;;;;;2.90;1.12;;;;;;;14.15;24.48;103153.62;1732914;82;21315;-65
2021/10/06 09:58:36;;;;;;;4.37;1.00;;;;;;;13.93;25.02;103170.73;1686054;82;21386;-68
2021/10/06 10:01:09;;;;;;;79.87;6.37;;;;;;;13.56;25.33;103169.80;1703337;81;21314;-61
2021/10/06 10:03:43;;;;;;;4.33;1.17;;;;;;;13.17;26.04;103156.56;1727173;81;21311;-62
2021/10/06 10:06:17;;;;;;;3.05;0.93;;;;;;;12.93;26.34;103187.22;1728150;82;22682;-63
2021/10/06 10:08:53;;;;;;;16.87;2.30;;;;;;;12.64;26.52;103158.03;1732904;81;21367;-64
2021/10/06 10:11:33;;;;;;;6.25;2.12;;;;;;;12.36;27.00;103155.13;1727745;82;21296;-63
2021/10/06 10:14:09;;;;;;;3.10;1.20;;;;;;;12.11;27.51;103154.17;1730016;82;21854;-61
2021/10/06 10:16:46;;;;;;;4.55;0.88;;;;;;;11.98;27.53;103154.86;1728822;81;21302;-61
2021/10/06 10:19:22;;;;;;;36.15;3.08;;;;;;;11.85;27.75;103148.03;1704001;82;21330;-61
2021/10/06 10:21:56;;;;;;;3.17;1.27;;;;;;;11.76;28.29;103143.69;1727238;82;21359;-62
2021/10/06 10:24:29;;;;;;;5.93;1.13;;;;;;;11.72;28.56;103135.13;1728448;82;21843;-63
2021/10/06 10:27:08;;;;;;;1.72;0.62;;;;;;;11.73;28.19;103148.62;1728701;82;21224;-67
2021/10/06 10:30:06;;;;;;;15.20;1.72;;;;;;;11.70;28.03;103137.44;1702730;82;21299;-68
2021/10/06 10:32:48;;;;;;;10.30;2.95;;;;;;;11.61;28.62;103145.23;1728411;82;21763;-68
2021/10/06 10:35:44;;;;;;;57.10;4.33;;;;;;;11.55;28.61;103129.80;1738807;80;21286;-67
2021/10/06 10:38:23;;;;;;;18.92;3.75;;;;;;;11.54;28.67;103138.58;1720090;82;21748;-66
2021/10/06 10:41:05;;;;;;;5.22;1.17;;;;;;;11.52;28.61;103126.00;1668795;83;21180;-67
2021/10/06 10:44:13;;;;;;;22.95;3.45;;;;;;;11.45;28.66;103129.83;1731478;82;21309;-62
2021/10/06 10:46:36;;;;;;;5.97;1.90;;;;;;;11.42;28.87;103116.85;1712450;82;21291;-61
2021/10/06 10:49:20;;;;;;;3.60;0.80;;;;;;;11.39;29.12;103113.09;1697566;81;21135;-65
2021/10/06 10:52:01;;;;;;;7.50;1.32;;;;;;;11.43;29.49;103115.48;1732086;80;21332;-67
2021/10/06 10:54:50;;;;;;;8.30;1.27;;;;;;;11.45;29.09;103114.09;1732826;81;21358;-67
2021/10/06 10:57:26;;;;;;;11.35;1.85;;;;;;;11.41;29.23;103120.42;1726387;82;21319;-64
2021/10/06 11:00:00;;;;;;;5.60;1.37;;;;;;;11.32;29.54;103112.98;1703354;81;21343;-67
2021/10/06 11:02:41;;;;;;;1.70;1.05;;;;;;;11.29;29.75;103103.48;1723122;81;21180;-68
2021/10/06 11:05:16;;;;;;;1.87;1.10;;;;;;;11.29;29.93;103099.55;1731149;81;21867;-67
2021/10/06 11:07:51;;;;;;;6.12;1.37;;;;;;;11.27;29.97;103108.41;1734221;81;21181;-68
2021/10/06 11:10:27;;;;;;;;;;;;;;;11.23;29.68;103097.20;1735612;81;21342;-69
2021/10/06 11:13:06;;;;;;;6.42;1.32;;;;;;;11.20;30.25;103094.71;1733134;81;20663;-65
2021/10/06 11:15:43;;;;;;;3.90;1.40;;;;;;;11.21;30.84;103095.57;1733078;81;21206;-62
2021/10/06 11:18:25;;;;;;;5.08;1.47;;;;;;;11.27;30.46;103093.50;1697792;81;21326;-65
2021/10/06 11:21:05;;;;;;;3.55;0.90;;;;;;;11.31;30.24;103104.71;1735179;82;21351;-61
2021/10/06 11:23:40;;;;;;;3.35;1.20;;;;;;;11.30;29.87;103096.45;1733216;81;21842;-67
2021/10/06 11:26:25;;;;;;;12.28;1.55;;;;;;;11.23;30.22;103088.02;1728624;82;21292;-67
2021/10/06 11:28:58;;;;;;;2.08;1.20;;;;;;;11.23;30.39;103089.33;1737760;80;21323;-66
2021/10/06 11:31:34;;;;;;;2.12;1.10;;;;;;;11.23;30.19;103081.47;1731040;82;21308;-68
2021/10/06 11:34:17;;;;;;;2.65;1.32;;;;;;;11.25;30.18;103086.17;1733823;81;21296;-66
2021/10/06 11:36:53;;;;;;;5.75;1.32;;;;;;;11.28;30.17;103073.38;1744271;81;21918;-65
2021/10/06 11:39:28;;;;;;;6.25;2.30;;;;;;;11.29;30.16;103082.95;1741823;81;21295;-65
2021/10/06 11:42:03;;;;;;;2.70;1.27;;;;;;;11.30;30.13;103091.20;1732808;81;21174;-62
2021/10/06 11:44:40;;;;;;;5.37;1.52;;;;;;;11.29;29.82;103087.75;1744619;81;21319;-67
2021/10/06 11:47:19;;;;;;;5.80;1.35;;;;;;;11.25;30.06;103071.75;1743630;81;22272;-65
2021/10/06 11:49:53;;;;;;;4.30;1.25;;;;;;;11.24;30.56;103077.08;1742246;81;21213;-67
2021/10/06 11:52:28;;;;;;;7.23;1.80;;;;;;;11.26;30.00;103081.78;1744378;81;21298;-67
2021/10/06 11:55:01;;;;;;;1.30;0.90;;;;;;;11.24;29.81;103074.00;1744685;81;21578;-65
2021/10/06 11:57:35;;;;;;;4.85;1.30;;;;;;;11.19;30.03;103064.19;1746402;81;21175;-66
2021/10/06 12:00:16;;;;;;;5.03;1.50;;;;;;;11.16;29.94;103078.74;1742920;81;21312;-62
2021/10/06 12:02:50;;;;;;;2.52;1.00;;;;;;;11.16;30.24;103066.94;1741839;81;21291;-70
2021/10/06 12:05:23;;;;;;;4.65;1.10;;;;;;;11.17;30.33;103075.66;1714939;80;22721;-61